F/V Men_gwen — FS2240 — position and weather

sailwx.info

Track history (hours):
 
Tides and Currents Weather Stations Pressure Air Temp Water Temp Dewpoint Dewpoint Depression Visibility Wind Speed Wind Dir Waves Ship Positions

F/V Men_gwen

Last reported at 2017-Sep-08 04:43 UTC. Time now 2017-Sep-19 15:29 UTC.
Position N 47°49' W 004°23'.
Warning: this ship's position is 11 days out of date.

Length 12 m.

Type: Fishing. MMSI: 227114300.

Date/timePositionNaut miles runAvg speedWind from/ knotsBaromVisibWave heightAir tempDewpointWater temp
2017-Sep-08 04:43N 47°49' W 004°23'3 4.1
2017-Sep-08 04:01N 47°50' W 004°26'1 9.3
2017-Sep-08 03:52N 47°51' W 004°28'4 9.4
2017-Sep-08 03:29N 47°54' W 004°32'4 9.3
2017-Sep-08 03:00N 47°57' W 004°37'4 8.7
2017-Sep-08 02:30N 47°59' W 004°42'4 7.3
2017-Sep-08 02:00N 48°02' W 004°46'2 4.3
2017-Sep-08 01:30N 48°04' W 004°46'3 6.8
2017-Sep-08 01:00N 48°07' W 004°47'4 8.8
2017-Sep-08 00:30N 48°12' W 004°47'4 8.9
2017-Sep-08 00:00N 48°16' W 004°48'4 8.3
2017-Sep-07 23:30N 48°20' W 004°48'1 0.0
2017-Sep-06 15:09N 48°22' W 004°47'0 0.4
2017-Sep-06 15:00N 48°22' W 004°47'0 0.0
2017-Sep-06 14:30N 48°22' W 004°47'3 6.5
2017-Sep-06 14:01N 48°18' W 004°48'5 9.1
2017-Sep-06 13:30N 48°14' W 004°49'3 5.7
2017-Sep-06 13:00N 48°11' W 004°50'1 2.3
2017-Sep-06 12:31N 48°10' W 004°52'2 4.2
2017-Sep-06 12:00N 48°09' W 004°53'1 2.1
2017-Sep-06 11:30N 48°08' W 004°54'2 4.9
2017-Sep-06 11:01N 48°08' W 004°50'1 2.1
2017-Sep-06 10:30N 48°08' W 004°51'0 0.1
2017-Sep-06 10:01N 48°08' W 004°51'2 3.9
2017-Sep-06 09:31N 48°09' W 004°50'3 5.1
2017-Sep-06 09:01N 48°12' W 004°49'5 9.9
2017-Sep-06 08:31N 48°17' W 004°48'510.2
2017-Sep-06 08:00N 48°22' W 004°47'0 0.0
2017-Sep-06 07:30N 48°22' W 004°47'0 0.0
2017-Sep-05 11:31N 48°22' W 004°47'0 1.1
2017-Sep-05 11:30N 48°22' W 004°47'0 0.1
2017-Sep-05 11:00N 48°22' W 004°47'3 6.2
2017-Sep-05 10:30N 48°19' W 004°49'5 9.3
2017-Sep-05 10:00N 48°16' W 004°54'12 2.4
2017-Sep-05 05:11N 48°08' W 005°07'1 3.6
2017-Sep-05 05:00N 48°07' W 005°07'1 1.7
2017-Sep-05 04:24N 48°08' W 005°06'1 1.2
2017-Sep-05 03:54N 48°09' W 005°05'1 1.1
2017-Sep-05 03:27N 48°09' W 005°05'1 1.2
2017-Sep-05 02:56N 48°09' W 005°04'3 5.9
2017-Sep-05 02:30N 48°11' W 005°02'3 6.8
2017-Sep-05 02:00N 48°13' W 004°58'4 7.0
2017-Sep-05 01:30N 48°16' W 004°54'3 6.8
2017-Sep-05 01:00N 48°18' W 004°50'3 6.6
2017-Sep-05 00:31N 48°21' W 004°47'1 0.1
2017-Sep-04 14:51N 48°22' W 004°47'0 0.1
2017-Sep-04 14:30N 48°22' W 004°47'2 3.2
2017-Sep-04 14:00N 48°20' W 004°48'5 9.5
2017-Sep-04 13:30N 48°17' W 004°53'5 9.2
2017-Sep-04 13:00N 48°14' W 004°58'12 9.2
2017-Sep-04 11:43N 48°07' W 005°13'10 1.4
2017-Sep-04 04:43N 48°00' W 005°23'4 4.2
2017-Sep-04 03:49N 48°03' W 005°18'10 8.5
2017-Sep-04 02:37N 48°09' W 005°07'2 7.9
2017-Sep-04 02:23N 48°10' W 005°04'3 8.1
2017-Sep-04 02:00N 48°12' W 005°01'4 8.7
2017-Sep-04 01:31N 48°15' W 004°56'4 8.8
2017-Sep-04 01:01N 48°18' W 004°51'4 7.6
2017-Sep-04 00:30N 48°21' W 004°47'1 0.0
2017-Sep-02 14:06N 48°22' W 004°47'0 0.6
2017-Sep-02 14:00N 48°22' W 004°47'0 0.0
2017-Sep-02 13:30N 48°22' W 004°47'3 5.3
2017-Sep-02 13:00N 48°19' W 004°49'5 9.8
2017-Sep-02 12:30N 48°16' W 004°54'5 9.8
2017-Sep-02 11:58N 48°12' W 004°60'9 9.7
2017-Sep-02 11:02N 48°06' W 005°10'2 8.2
2017-Sep-02 10:47N 48°08' W 005°07'2 1.6
2017-Sep-02 09:27N 48°06' W 005°09'4 8.3
2017-Sep-02 09:00N 48°09' W 005°05'2 1.3
2017-Sep-02 07:22N 48°07' W 005°07'2 4.2
2017-Sep-02 06:48N 48°05' W 005°10'1 0.6
2017-Sep-02 05:38N 48°06' W 005°09'8 8.4
2017-Sep-02 04:38N 48°01' W 005°20'1 0.7
2017-Sep-02 03:38N 48°01' W 005°21'9 9.4
2017-Sep-02 02:38N 48°07' W 005°10'2 9.4
2017-Sep-02 02:24N 48°08' W 005°07'4 9.4
2017-Sep-02 02:00N 48°11' W 005°03'5 9.4
2017-Sep-02 01:30N 48°14' W 004°58'5 9.2
2017-Sep-02 01:00N 48°17' W 004°52'4 8.8
2017-Sep-02 00:30N 48°20' W 004°48'2 0.3
2017-Sep-01 17:37N 48°22' W 004°47'0 0.0
2017-Sep-01 17:30N 48°22' W 004°47'3 5.4
2017-Sep-01 17:00N 48°19' W 004°48'4 8.9
2017-Sep-01 16:31N 48°16' W 004°54'5 9.0
2017-Sep-01 15:58N 48°13' W 004°59'20 2.2
2017-Sep-01 06:58N 48°01' W 005°22'4 3.3
2017-Sep-01 05:43N 47°56' W 005°22'11 3.7
2017-Sep-01 02:43N 48°05' W 005°11'5 9.8
2017-Sep-01 02:13N 48°08' W 005°06'210.0
2017-Sep-01 02:00N 48°10' W 005°04'5 9.7
2017-Sep-01 01:30N 48°13' W 004°58'5 9.4
2017-Sep-01 01:01N 48°16' W 004°53'5 9.3
2017-Sep-01 00:31N 48°19' W 004°48'2 0.3
2017-Aug-31 16:17N 48°22' W 004°47'0 0.2
2017-Aug-31 16:00N 48°22' W 004°47'1 1.6
2017-Aug-31 15:28N 48°21' W 004°47'4 8.3
2017-Aug-31 15:00N 48°18' W 004°50'5 9.2
2017-Aug-31 14:30N 48°15' W 004°56'5 8.9
2017-Aug-31 14:00N 48°13' W 005°02'11 8.7
2017-Aug-31 12:43N 48°06' W 005°15'2 2.4
2017-Aug-31 11:43N 48°05' W 005°19'0 0.2
2017-Aug-31 10:43N 48°05' W 005°18'4 2.1
2017-Aug-31 08:43N 48°04' W 005°24'1 1.4
2017-Aug-31 07:43N 48°02' W 005°25'2 2.1
2017-Aug-31 06:43N 48°03' W 005°21'9 2.1
2017-Aug-31 02:43N 48°07' W 005°10'3 9.4
2017-Aug-31 02:27N 48°08' W 005°07'4 9.3
2017-Aug-31 02:00N 48°11' W 005°02'5 9.4
2017-Aug-31 01:30N 48°14' W 004°57'5 9.2
2017-Aug-31 01:00N 48°17' W 004°52'5 9.7
2017-Aug-31 00:30N 48°21' W 004°47'1 0.1
2017-Aug-30 13:09N 48°22' W 004°47'0 0.0
2017-Aug-30 13:00N 48°22' W 004°47'1 2.9
2017-Aug-30 12:30N 48°20' W 004°47'4 8.4
2017-Aug-30 12:00N 48°17' W 004°52'5 9.0
2017-Aug-30 11:28N 48°14' W 004°57'6 0.7
2017-Aug-30 02:12N 48°10' W 005°04'2 9.8
2017-Aug-30 02:00N 48°11' W 005°02'5 9.8
2017-Aug-30 01:30N 48°14' W 004°56'5 9.8
2017-Aug-30 01:00N 48°17' W 004°51'5 9.9
2017-Aug-30 00:30N 48°22' W 004°47'0 0.0
2017-Aug-29 15:50N 48°22' W 004°47'1 2.5
2017-Aug-29 15:27N 48°21' W 004°47'4 9.1
2017-Aug-29 15:00N 48°18' W 004°51'5 9.1
2017-Aug-29 14:30N 48°15' W 004°56'8 9.0
2017-Aug-29 13:38N 48°10' W 005°06'16 8.1
2017-Aug-29 11:38N 47°58' W 005°23'1 1.4
2017-Aug-29 10:38N 47°59' W 005°22'1 1.2
2017-Aug-29 09:59N 48°00' W 005°22'3 1.2
2017-Aug-29 07:38N 47°57' W 005°23'1 1.3
2017-Aug-29 06:33N 47°56' W 005°23'1 2.8
2017-Aug-29 06:07N 47°57' W 005°24'1 8.2
2017-Aug-29 06:00N 47°58' W 005°24'1 0.6
2017-Aug-29 05:02N 47°57' W 005°24'  
Track history (hours):
 
Tides and Currents Weather Stations Pressure Air Temp Water Temp Dewpoint Dewpoint Depression Visibility Wind Speed Wind Dir Waves Ship Positions

F/V Men_gwen

Last reported at 2017-Sep-08 04:43 UTC. Time now 2017-Sep-19 15:29 UTC.
Position N 47°49' W 004°23'.
Warning: this ship's position is 11 days out of date.

Length 12 m.

Type: Fishing. MMSI: 227114300.

Date/timePositionNaut miles runAvg speedWind from/ knotsBaromVisibWave heightAir tempDewpointWater temp
2017-Sep-08 04:43N 47°49' W 004°23'3 4.1
2017-Sep-08 04:01N 47°50' W 004°26'1 9.3
2017-Sep-08 03:52N 47°51' W 004°28'4 9.4
2017-Sep-08 03:29N 47°54' W 004°32'4 9.3
2017-Sep-08 03:00N 47°57' W 004°37'4 8.7
2017-Sep-08 02:30N 47°59' W 004°42'4 7.3
2017-Sep-08 02:00N 48°02' W 004°46'2 4.3
2017-Sep-08 01:30N 48°04' W 004°46'3 6.8
2017-Sep-08 01:00N 48°07' W 004°47'4 8.8
2017-Sep-08 00:30N 48°12' W 004°47'4 8.9
2017-Sep-08 00:00N 48°16' W 004°48'4 8.3
2017-Sep-07 23:30N 48°20' W 004°48'1 0.0
2017-Sep-06 15:09N 48°22' W 004°47'0 0.4
2017-Sep-06 15:00N 48°22' W 004°47'0 0.0
2017-Sep-06 14:30N 48°22' W 004°47'3 6.5
2017-Sep-06 14:01N 48°18' W 004°48'5 9.1
2017-Sep-06 13:30N 48°14' W 004°49'3 5.7
2017-Sep-06 13:00N 48°11' W 004°50'1 2.3
2017-Sep-06 12:31N 48°10' W 004°52'2 4.2
2017-Sep-06 12:00N 48°09' W 004°53'1 2.1
2017-Sep-06 11:30N 48°08' W 004°54'2 4.9
2017-Sep-06 11:01N 48°08' W 004°50'1 2.1
2017-Sep-06 10:30N 48°08' W 004°51'0 0.1
2017-Sep-06 10:01N 48°08' W 004°51'2 3.9
2017-Sep-06 09:31N 48°09' W 004°50'3 5.1
2017-Sep-06 09:01N 48°12' W 004°49'5 9.9
2017-Sep-06 08:31N 48°17' W 004°48'510.2
2017-Sep-06 08:00N 48°22' W 004°47'0 0.0
2017-Sep-06 07:30N 48°22' W 004°47'0 0.0
2017-Sep-05 11:31N 48°22' W 004°47'0 1.1
2017-Sep-05 11:30N 48°22' W 004°47'0 0.1
2017-Sep-05 11:00N 48°22' W 004°47'3 6.2
2017-Sep-05 10:30N 48°19' W 004°49'5 9.3
2017-Sep-05 10:00N 48°16' W 004°54'12 2.4
2017-Sep-05 05:11N 48°08' W 005°07'1 3.6
2017-Sep-05 05:00N 48°07' W 005°07'1 1.7
2017-Sep-05 04:24N 48°08' W 005°06'1 1.2
2017-Sep-05 03:54N 48°09' W 005°05'1 1.1
2017-Sep-05 03:27N 48°09' W 005°05'1 1.2
2017-Sep-05 02:56N 48°09' W 005°04'3 5.9
2017-Sep-05 02:30N 48°11' W 005°02'3 6.8
2017-Sep-05 02:00N 48°13' W 004°58'4 7.0
2017-Sep-05 01:30N 48°16' W 004°54'3 6.8
2017-Sep-05 01:00N 48°18' W 004°50'3 6.6
2017-Sep-05 00:31N 48°21' W 004°47'1 0.1
2017-Sep-04 14:51N 48°22' W 004°47'0 0.1
2017-Sep-04 14:30N 48°22' W 004°47'2 3.2
2017-Sep-04 14:00N 48°20' W 004°48'5 9.5
2017-Sep-04 13:30N 48°17' W 004°53'5 9.2
2017-Sep-04 13:00N 48°14' W 004°58'12 9.2
2017-Sep-04 11:43N 48°07' W 005°13'10 1.4
2017-Sep-04 04:43N 48°00' W 005°23'4 4.2
2017-Sep-04 03:49N 48°03' W 005°18'10 8.5
2017-Sep-04 02:37N 48°09' W 005°07'2 7.9
2017-Sep-04 02:23N 48°10' W 005°04'3 8.1
2017-Sep-04 02:00N 48°12' W 005°01'4 8.7
2017-Sep-04 01:31N 48°15' W 004°56'4 8.8
2017-Sep-04 01:01N 48°18' W 004°51'4 7.6
2017-Sep-04 00:30N 48°21' W 004°47'1 0.0
2017-Sep-02 14:06N 48°22' W 004°47'0 0.6
2017-Sep-02 14:00N 48°22' W 004°47'0 0.0
2017-Sep-02 13:30N 48°22' W 004°47'3 5.3
2017-Sep-02 13:00N 48°19' W 004°49'5 9.8
2017-Sep-02 12:30N 48°16' W 004°54'5 9.8
2017-Sep-02 11:58N 48°12' W 004°60'9 9.7
2017-Sep-02 11:02N 48°06' W 005°10'2 8.2
2017-Sep-02 10:47N 48°08' W 005°07'2 1.6
2017-Sep-02 09:27N 48°06' W 005°09'4 8.3
2017-Sep-02 09:00N 48°09' W 005°05'2 1.3
2017-Sep-02 07:22N 48°07' W 005°07'2 4.2
2017-Sep-02 06:48N 48°05' W 005°10'1 0.6
2017-Sep-02 05:38N 48°06' W 005°09'8 8.4
2017-Sep-02 04:38N 48°01' W 005°20'1 0.7
2017-Sep-02 03:38N 48°01' W 005°21'9 9.4
2017-Sep-02 02:38N 48°07' W 005°10'2 9.4
2017-Sep-02 02:24N 48°08' W 005°07'4 9.4
2017-Sep-02 02:00N 48°11' W 005°03'5 9.4
2017-Sep-02 01:30N 48°14' W 004°58'5 9.2
2017-Sep-02 01:00N 48°17' W 004°52'4 8.8
2017-Sep-02 00:30N 48°20' W 004°48'2 0.3
2017-Sep-01 17:37N 48°22' W 004°47'0 0.0
2017-Sep-01 17:30N 48°22' W 004°47'3 5.4
2017-Sep-01 17:00N 48°19' W 004°48'4 8.9
2017-Sep-01 16:31N 48°16' W 004°54'5 9.0
2017-Sep-01 15:58N 48°13' W 004°59'20 2.2
2017-Sep-01 06:58N 48°01' W 005°22'4 3.3
2017-Sep-01 05:43N 47°56' W 005°22'11 3.7
2017-Sep-01 02:43N 48°05' W 005°11'5 9.8
2017-Sep-01 02:13N 48°08' W 005°06'210.0
2017-Sep-01 02:00N 48°10' W 005°04'5 9.7
2017-Sep-01 01:30N 48°13' W 004°58'5 9.4
2017-Sep-01 01:01N 48°16' W 004°53'5 9.3
2017-Sep-01 00:31N 48°19' W 004°48'2 0.3
2017-Aug-31 16:17N 48°22' W 004°47'0 0.2
2017-Aug-31 16:00N 48°22' W 004°47'1 1.6
2017-Aug-31 15:28N 48°21' W 004°47'4 8.3
2017-Aug-31 15:00N 48°18' W 004°50'5 9.2
2017-Aug-31 14:30N 48°15' W 004°56'5 8.9
2017-Aug-31 14:00N 48°13' W 005°02'11 8.7
2017-Aug-31 12:43N 48°06' W 005°15'2 2.4
2017-Aug-31 11:43N 48°05' W 005°19'0 0.2
2017-Aug-31 10:43N 48°05' W 005°18'4 2.1
2017-Aug-31 08:43N 48°04' W 005°24'1 1.4
2017-Aug-31 07:43N 48°02' W 005°25'2 2.1
2017-Aug-31 06:43N 48°03' W 005°21'9 2.1
2017-Aug-31 02:43N 48°07' W 005°10'3 9.4
2017-Aug-31 02:27N 48°08' W 005°07'4 9.3
2017-Aug-31 02:00N 48°11' W 005°02'5 9.4
2017-Aug-31 01:30N 48°14' W 004°57'5 9.2
2017-Aug-31 01:00N 48°17' W 004°52'5 9.7
2017-Aug-31 00:30N 48°21' W 004°47'1 0.1
2017-Aug-30 13:09N 48°22' W 004°47'0 0.0
2017-Aug-30 13:00N 48°22' W 004°47'1 2.9
2017-Aug-30 12:30N 48°20' W 004°47'4 8.4
2017-Aug-30 12:00N 48°17' W 004°52'5 9.0
2017-Aug-30 11:28N 48°14' W 004°57'6 0.7
2017-Aug-30 02:12N 48°10' W 005°04'2 9.8
2017-Aug-30 02:00N 48°11' W 005°02'5 9.8
2017-Aug-30 01:30N 48°14' W 004°56'5 9.8
2017-Aug-30 01:00N 48°17' W 004°51'5 9.9
2017-Aug-30 00:30N 48°22' W 004°47'0 0.0
2017-Aug-29 15:50N 48°22' W 004°47'1 2.5
2017-Aug-29 15:27N 48°21' W 004°47'4 9.1
2017-Aug-29 15:00N 48°18' W 004°51'5 9.1
2017-Aug-29 14:30N 48°15' W 004°56'8 9.0
2017-Aug-29 13:38N 48°10' W 005°06'16 8.1
2017-Aug-29 11:38N 47°58' W 005°23'1 1.4
2017-Aug-29 10:38N 47°59' W 005°22'1 1.2
2017-Aug-29 09:59N 48°00' W 005°22'3 1.2
2017-Aug-29 07:38N 47°57' W 005°23'1 1.3
2017-Aug-29 06:33N 47°56' W 005°23'1 2.8
2017-Aug-29 06:07N 47°57' W 005°24'1 8.2
2017-Aug-29 06:00N 47°58' W 005°24'1 0.6
2017-Aug-29 05:02N 47°57' W 005°24'  

Dump ship's entire track history